createdAt,value
2023-02-19T00:01:49.401Z,22.90
2023-02-19T00:04:20.070Z,23.00
2023-02-19T00:06:48.758Z,22.90
2023-02-19T00:09:18.689Z,22.90
2023-02-19T00:11:47.947Z,22.90
2023-02-19T00:14:19.193Z,22.90
2023-02-19T00:16:47.664Z,22.90
2023-02-19T00:19:18.081Z,22.90
2023-02-19T00:21:46.324Z,22.90
2023-02-19T00:24:15.350Z,22.90
2023-02-19T00:26:44.090Z,22.90
2023-02-19T00:29:17.377Z,22.90
2023-02-19T00:31:45.826Z,22.90
2023-02-19T00:34:14.455Z,22.90
2023-02-19T00:36:43.421Z,22.90
2023-02-19T00:39:15.803Z,22.90
2023-02-19T00:41:44.449Z,22.90
2023-02-19T00:44:13.427Z,22.90
2023-02-19T00:46:47.111Z,22.90
2023-02-19T00:49:23.229Z,22.80
2023-02-19T00:51:52.772Z,22.80
2023-02-19T00:54:22.547Z,22.80
2023-02-19T00:56:51.254Z,22.90
2023-02-19T00:59:19.437Z,22.80
2023-02-19T01:01:47.212Z,22.80
2023-02-19T01:04:16.605Z,22.80
2023-02-19T01:06:44.491Z,22.80
2023-02-19T01:09:12.126Z,22.80
2023-02-19T01:11:40.003Z,22.80
2023-02-19T01:14:09.875Z,22.80
2023-02-19T01:16:38.203Z,22.80
2023-02-19T01:19:05.954Z,22.80
2023-02-19T01:21:33.708Z,22.80
2023-02-19T01:24:01.404Z,22.80
2023-02-19T01:26:31.936Z,22.80
2023-02-19T01:29:00.783Z,22.80
2023-02-19T01:31:29.857Z,22.80
2023-02-19T01:34:00.150Z,22.90
2023-02-19T01:36:28.777Z,22.80
2023-02-19T01:38:57.075Z,22.80
2023-02-19T01:41:26.069Z,22.80
2023-02-19T01:44:08.057Z,22.80
2023-02-19T01:46:41.882Z,22.80
2023-02-19T01:49:15.528Z,22.80
2023-02-19T01:51:54.456Z,22.80
2023-02-19T01:54:26.200Z,22.80
2023-02-19T01:56:56.035Z,22.80
2023-02-19T01:59:24.286Z,22.80
2023-02-19T02:01:52.946Z,22.80
2023-02-19T02:04:20.702Z,22.80
2023-02-19T02:06:54.195Z,22.80
2023-02-19T02:09:44.352Z,22.80
2023-02-19T02:12:12.899Z,22.80
2023-02-19T02:14:47.649Z,22.80
2023-02-19T02:17:29.193Z,22.80
2023-02-19T02:20:15.104Z,22.80
2023-02-19T02:23:00.896Z,22.80
2023-02-19T02:26:12.970Z,22.80
2023-02-19T02:29:10.378Z,22.80
2023-02-19T02:31:43.804Z,22.80
2023-02-19T02:34:18.591Z,22.80
2023-02-19T02:36:50.017Z,22.80
2023-02-19T02:39:21.117Z,22.80
2023-02-19T02:42:15.307Z,22.80
2023-02-19T02:45:20.500Z,22.80
2023-02-19T02:47:52.244Z,22.80
2023-02-19T02:50:27.684Z,22.80
2023-02-19T02:53:22.227Z,22.80
2023-02-19T02:55:53.390Z,22.80
2023-02-19T02:58:24.557Z,22.80
2023-02-19T03:01:21.257Z,22.80
2023-02-19T03:03:54.377Z,22.80
2023-02-19T03:06:24.388Z,22.80
2023-02-19T03:09:07.613Z,22.80
2023-02-19T03:11:58.178Z,22.80
2023-02-19T03:15:00.887Z,22.80
2023-02-19T03:18:01.280Z,22.80
2023-02-19T03:20:30.370Z,22.80
2023-02-19T03:23:00.477Z,22.80
2023-02-19T03:25:52.410Z,22.80
2023-02-19T03:28:51.366Z,22.80
2023-02-19T03:35:33.758Z,22.80
2023-02-19T03:38:20.623Z,22.80
2023-02-19T03:40:59.980Z,22.80
2023-02-19T03:43:49.820Z,22.80
2023-02-19T03:46:41.480Z,22.80
2023-02-19T03:49:49.142Z,22.80
2023-02-19T03:52:44.089Z,22.80
2023-02-19T03:55:27.064Z,22.80
2023-02-19T03:58:14.644Z,22.80
2023-02-19T04:00:49.009Z,22.80
2023-02-19T04:03:25.744Z,22.80
2023-02-19T04:06:05.530Z,22.80
2023-02-19T04:08:36.282Z,22.80
2023-02-19T04:11:07.709Z,22.80
2023-02-19T04:13:43.530Z,22.80
2023-02-19T04:16:17.832Z,22.70
2023-02-19T04:18:49.670Z,22.70
2023-02-19T04:21:20.356Z,22.70
2023-02-19T04:23:49.160Z,22.70
2023-02-19T04:26:20.220Z,22.70
2023-02-19T04:28:47.970Z,22.70
2023-02-19T04:31:15.665Z,22.70
2023-02-19T04:33:43.613Z,22.70
2023-02-19T04:36:11.946Z,22.70
2023-02-19T04:38:39.994Z,22.70
2023-02-19T04:41:09.282Z,22.70
2023-02-19T04:43:37.213Z,22.70
2023-02-19T04:46:05.159Z,22.70
2023-02-19T04:48:32.887Z,22.70
2023-02-19T04:51:04.520Z,22.70
2023-02-19T04:53:32.215Z,22.70
2023-02-19T04:56:10.167Z,22.70
2023-02-19T04:58:37.933Z,22.70
2023-02-19T05:01:05.962Z,22.70
2023-02-19T05:03:37.058Z,22.70
2023-02-19T05:06:06.809Z,22.70
2023-02-19T05:08:35.770Z,22.70
2023-02-19T05:11:05.224Z,22.70
2023-02-19T05:13:33.463Z,22.70
2023-02-19T05:16:03.982Z,22.70
2023-02-19T05:18:33.023Z,22.70
2023-02-19T05:21:01.670Z,22.70
2023-02-19T05:23:29.386Z,22.70
2023-02-19T05:25:57.136Z,22.70
2023-02-19T05:28:34.109Z,22.60
2023-02-19T05:31:06.818Z,22.60
2023-02-19T05:33:35.460Z,22.70
2023-02-19T05:36:07.410Z,22.60
2023-02-19T05:38:35.777Z,22.60
2023-02-19T05:41:13.617Z,22.60
2023-02-19T05:43:43.483Z,22.70
2023-02-19T05:46:14.882Z,22.70
2023-02-19T05:48:43.181Z,22.60
2023-02-19T05:51:14.837Z,22.60
2023-02-19T05:53:43.942Z,22.60
2023-02-19T05:56:20.196Z,22.60
2023-02-19T05:58:48.171Z,22.60
2023-02-19T06:01:20.849Z,22.60
2023-02-19T06:03:48.599Z,22.60
2023-02-19T06:06:18.111Z,22.60
2023-02-19T06:08:47.920Z,22.60
2023-02-19T06:11:16.271Z,22.60
2023-02-19T06:13:44.576Z,22.60
2023-02-19T06:16:12.472Z,22.60
2023-02-19T06:18:41.361Z,22.60
2023-02-19T06:21:11.581Z,22.60
2023-02-19T06:23:40.124Z,22.60
2023-02-19T06:26:14.257Z,22.60
2023-02-19T06:28:42.737Z,22.60
2023-02-19T06:31:12.159Z,22.60
2023-02-19T06:33:41.175Z,22.60
2023-02-19T06:36:13.205Z,22.60
2023-02-19T06:38:41.552Z,22.60
2023-02-19T06:41:10.130Z,22.50
2023-02-19T06:43:38.473Z,22.60
2023-02-19T06:46:07.897Z,22.60
2023-02-19T06:48:35.790Z,22.60
2023-02-19T06:51:04.118Z,22.60
2023-02-19T06:53:31.859Z,22.60
2023-02-19T06:56:02.193Z,22.60
2023-02-19T06:58:30.066Z,22.50
2023-02-19T07:00:58.105Z,22.60
2023-02-19T07:03:26.621Z,22.60
2023-02-19T07:05:54.459Z,22.50
2023-02-19T07:08:22.420Z,22.60
2023-02-19T07:10:57.694Z,22.50
2023-02-19T07:13:29.562Z,22.60
2023-02-19T07:16:02.229Z,22.60
2023-02-19T07:18:30.841Z,22.60
2023-02-19T07:21:10.102Z,22.50
2023-02-19T07:23:38.801Z,22.50
2023-02-19T07:26:13.811Z,22.50
2023-02-19T07:28:46.551Z,22.60
2023-02-19T07:31:15.718Z,22.60
2023-02-19T07:33:47.768Z,22.50
2023-02-19T07:36:17.501Z,22.60
2023-02-19T07:38:46.034Z,22.60
2023-02-19T07:41:14.379Z,22.60
2023-02-19T07:43:42.227Z,22.60
2023-02-19T07:46:12.991Z,22.60
2023-02-19T07:48:42.648Z,22.50
2023-02-19T07:51:19.417Z,22.50
2023-02-19T07:53:50.460Z,22.60
2023-02-19T07:56:20.188Z,22.50
2023-02-19T07:58:48.185Z,22.60
2023-02-19T08:01:19.247Z,22.60
2023-02-19T08:03:48.869Z,22.60
2023-02-19T08:06:18.128Z,22.60
2023-02-19T08:08:45.819Z,22.50
2023-02-19T08:11:32.259Z,22.60
2023-02-19T08:14:00.022Z,22.60
2023-02-19T08:16:41.934Z,22.60
2023-02-19T08:19:11.076Z,22.60
2023-02-19T08:21:38.856Z,22.50
2023-02-19T08:24:07.477Z,22.50
2023-02-19T08:26:35.871Z,22.50
2023-02-19T08:29:05.695Z,22.60
2023-02-19T08:31:34.821Z,22.50
2023-02-19T08:34:03.543Z,22.50
2023-02-19T08:36:32.090Z,22.50
2023-02-19T08:39:03.384Z,22.50
2023-02-19T08:41:31.241Z,22.50
2023-02-19T08:44:00.017Z,22.50
2023-02-19T08:46:28.326Z,22.50
2023-02-19T08:48:56.278Z,22.50
2023-02-19T08:51:23.937Z,22.50
2023-02-19T08:53:51.640Z,22.50
2023-02-19T08:56:19.444Z,22.50
2023-02-19T08:58:47.152Z,22.50
2023-02-19T09:01:18.680Z,22.60
2023-02-19T09:03:47.205Z,22.60
2023-02-19T09:06:20.898Z,22.60
2023-02-19T09:08:48.787Z,22.60
2023-02-19T09:11:16.623Z,22.60
2023-02-19T09:13:44.631Z,22.60
2023-02-19T09:16:12.882Z,22.50
2023-02-19T09:18:41.203Z,22.60
2023-02-19T09:21:09.189Z,22.60
2023-02-19T09:23:38.264Z,22.60
2023-02-19T09:26:09.688Z,22.60
2023-02-19T09:28:42.056Z,22.60
2023-02-19T09:31:14.344Z,22.60
2023-02-19T09:33:48.011Z,22.60
2023-02-19T09:36:17.476Z,22.60
2023-02-19T09:38:45.937Z,22.60
2023-02-19T09:41:33.458Z,22.70
2023-02-19T09:44:05.209Z,22.70
2023-02-19T09:46:39.128Z,22.70
2023-02-19T09:49:15.228Z,22.70
2023-02-19T09:51:49.065Z,22.70
2023-02-19T09:54:29.116Z,22.70
2023-02-19T09:57:00.124Z,22.70
2023-02-19T09:59:40.329Z,22.70
2023-02-19T10:02:19.150Z,22.80
2023-02-19T10:04:48.750Z,22.80
2023-02-19T10:07:41.241Z,22.80
2023-02-19T10:10:15.338Z,22.80
2023-02-19T10:12:53.106Z,22.80
2023-02-19T10:15:32.567Z,22.80
2023-02-19T10:18:00.818Z,22.80
2023-02-19T10:20:29.527Z,22.80
2023-02-19T10:23:06.730Z,22.80
2023-02-19T10:25:46.818Z,22.80
2023-02-19T10:28:18.968Z,22.80
2023-02-19T10:30:59.959Z,22.80
2023-02-19T10:33:29.067Z,22.80
2023-02-19T10:36:00.569Z,22.80
2023-02-19T10:38:32.330Z,22.80
2023-02-19T10:41:06.493Z,22.90
2023-02-19T10:43:42.568Z,22.90
2023-02-19T10:46:23.329Z,22.80
2023-02-19T10:48:57.689Z,22.80
2023-02-19T10:51:38.409Z,22.90
2023-02-19T10:54:18.587Z,22.90
2023-02-19T10:56:47.373Z,22.90
2023-02-19T10:59:29.212Z,22.90
2023-02-19T11:02:03.517Z,22.90
2023-02-19T11:04:35.693Z,22.90
2023-02-19T11:07:17.848Z,22.90
2023-02-19T11:09:49.586Z,22.90
2023-02-19T11:12:29.971Z,22.80
2023-02-19T11:15:00.112Z,22.80
2023-02-19T11:17:30.674Z,22.80
2023-02-19T11:20:14.991Z,22.80
2023-02-19T11:22:47.206Z,22.80
2023-02-19T11:25:17.527Z,22.80
2023-02-19T11:28:07.412Z,22.80
2023-02-19T11:30:45.769Z,22.80
2023-02-19T11:33:17.127Z,22.80
2023-02-19T11:35:50.248Z,22.80
2023-02-19T11:38:21.863Z,22.80
2023-02-19T11:41:18.970Z,22.80
2023-02-19T11:48:04.576Z,22.80
2023-02-19T11:51:10.243Z,22.80
2023-02-19T11:53:49.600Z,22.80
2023-02-19T11:56:34.413Z,22.80
2023-02-19T11:59:49.213Z,22.80
2023-02-19T12:02:40.672Z,22.80
2023-02-19T12:05:44.569Z,22.80
2023-02-19T12:08:46.569Z,22.80
2023-02-19T12:11:37.606Z,22.80
2023-02-19T12:14:17.850Z,22.80
2023-02-19T12:16:56.172Z,22.80
2023-02-19T12:19:27.448Z,22.80
2023-02-19T12:22:16.675Z,22.90
2023-02-19T12:24:59.449Z,22.90
2023-02-19T12:28:02.582Z,22.80
2023-02-19T12:30:53.724Z,22.80
2023-02-19T12:33:40.488Z,22.80
2023-02-19T12:36:36.649Z,22.80
2023-02-19T12:39:23.610Z,22.90
2023-02-19T12:41:58.168Z,22.90
2023-02-19T12:44:47.564Z,23.10
2023-02-19T12:47:47.690Z,23.10
2023-02-19T12:50:22.168Z,23.20
2023-02-19T12:53:06.018Z,23.20
2023-02-19T12:55:42.179Z,23.20
2023-02-19T12:58:21.773Z,23.20
2023-02-19T13:00:59.383Z,23.10
2023-02-19T13:03:39.853Z,23.10
2023-02-19T13:06:36.578Z,23.10
2023-02-19T13:09:34.824Z,23.10
2023-02-19T13:12:08.818Z,23.10
2023-02-19T13:14:49.057Z,23.00
2023-02-19T13:17:58.124Z,23.00
2023-02-19T13:20:30.575Z,23.00
2023-02-19T13:23:37.617Z,23.00
2023-02-19T13:26:38.875Z,23.00
2023-02-19T13:29:32.656Z,23.00
2023-02-19T13:32:15.898Z,22.90
2023-02-19T13:35:28.180Z,23.00
2023-02-19T13:38:01.851Z,23.00
2023-02-19T13:40:39.693Z,23.00
2023-02-19T13:43:23.673Z,23.00
2023-02-19T13:45:55.669Z,23.00
2023-02-19T13:48:29.238Z,23.00
2023-02-19T13:51:23.665Z,23.00
2023-02-19T13:53:59.141Z,23.00
2023-02-19T13:56:34.560Z,23.00
2023-02-19T13:59:24.092Z,23.00
2023-02-19T14:01:55.375Z,23.00
2023-02-19T14:04:25.216Z,23.00
2023-02-19T14:07:05.428Z,23.00
2023-02-19T14:09:44.252Z,23.00
2023-02-19T14:12:16.343Z,23.00
2023-02-19T14:14:57.453Z,22.90
2023-02-19T14:17:37.851Z,23.00
2023-02-19T14:20:18.267Z,23.00
2023-02-19T14:22:46.598Z,23.00
2023-02-19T14:25:32.591Z,22.90
2023-02-19T14:28:24.281Z,22.90
2023-02-19T14:31:03.529Z,22.90
2023-02-19T14:33:40.891Z,22.90
2023-02-19T14:36:15.109Z,22.90
2023-02-19T14:38:55.208Z,22.90
2023-02-19T14:41:24.809Z,22.90
2023-02-19T14:43:56.088Z,22.90
2023-02-19T14:46:38.717Z,22.90
2023-02-19T14:49:22.352Z,22.90
2023-02-19T14:51:59.688Z,22.80
2023-02-19T14:54:42.496Z,22.80
2023-02-19T14:57:20.096Z,22.80
2023-02-19T15:00:00.195Z,22.80
2023-02-19T15:02:30.831Z,22.80
2023-02-19T15:04:59.238Z,22.80
2023-02-19T15:07:33.285Z,22.90
2023-02-19T15:10:06.306Z,22.80
2023-02-19T15:12:52.087Z,22.80
2023-02-19T15:15:30.167Z,22.80
2023-02-19T15:17:59.769Z,22.80
2023-02-19T15:20:32.819Z,22.80
2023-02-19T15:23:02.578Z,22.80
2023-02-19T15:25:40.330Z,22.80
2023-02-19T15:28:30.092Z,22.80
2023-02-19T15:30:58.266Z,22.80
2023-02-19T15:33:28.338Z,22.80
2023-02-19T15:36:03.076Z,22.80
2023-02-19T15:38:31.699Z,22.80
2023-02-19T15:41:01.856Z,22.80
2023-02-19T15:43:45.626Z,22.80
2023-02-19T15:46:19.908Z,22.80
2023-02-19T15:49:20.174Z,22.80
2023-02-19T15:51:55.696Z,22.80
2023-02-19T15:54:39.856Z,22.80
2023-02-19T15:57:14.657Z,22.80
2023-02-19T15:59:56.020Z,22.80
2023-02-19T16:02:25.794Z,22.80
2023-02-19T16:04:56.495Z,22.80
2023-02-19T16:07:27.936Z,22.80
2023-02-19T16:10:31.133Z,22.80
2023-02-19T16:13:01.234Z,22.80
2023-02-19T16:15:31.533Z,22.80
2023-02-19T16:18:00.342Z,22.80
2023-02-19T16:20:31.413Z,22.80
2023-02-19T16:23:13.634Z,22.80
2023-02-19T16:25:46.997Z,22.80
2023-02-19T16:28:22.341Z,22.80
2023-02-19T16:31:01.774Z,22.80
2023-02-19T16:33:50.178Z,22.80
2023-02-19T16:36:22.095Z,22.70
2023-02-19T16:39:22.333Z,22.80
2023-02-19T16:41:50.576Z,22.80
2023-02-19T16:44:21.786Z,22.70
2023-02-19T16:46:58.196Z,22.80
2023-02-19T16:49:26.572Z,22.70
2023-02-19T16:51:55.052Z,22.80
2023-02-19T16:54:23.133Z,22.80
2023-02-19T16:56:51.293Z,22.80
2023-02-19T16:59:19.453Z,22.70
2023-02-19T17:01:47.773Z,22.80
2023-02-19T17:04:16.776Z,22.80
2023-02-19T17:06:45.852Z,22.70
2023-02-19T17:09:14.011Z,22.70
2023-02-19T17:11:42.263Z,22.70
2023-02-19T17:14:10.496Z,22.80
2023-02-19T17:16:41.710Z,22.80
2023-02-19T17:19:14.333Z,22.70
2023-02-19T17:21:43.532Z,22.80
2023-02-19T17:24:12.093Z,22.70
2023-02-19T17:26:40.420Z,22.80
2023-02-19T17:29:14.310Z,22.70
2023-02-19T17:31:42.856Z,22.70
2023-02-19T17:34:11.455Z,22.70
2023-02-19T17:36:40.902Z,22.70
2023-02-19T17:39:17.853Z,22.70
2023-02-19T17:41:46.263Z,22.70
2023-02-19T17:44:14.652Z,22.70
2023-02-19T17:46:43.208Z,22.70
2023-02-19T17:49:13.133Z,22.70
2023-02-19T17:51:41.299Z,22.70
2023-02-19T17:54:09.785Z,22.70
2023-02-19T17:56:40.339Z,22.70
2023-02-19T17:59:08.652Z,22.80
2023-02-19T18:01:37.157Z,22.70
2023-02-19T18:04:06.167Z,22.70
2023-02-19T18:06:35.290Z,22.70
2023-02-19T18:09:03.543Z,22.70
2023-02-19T18:11:31.772Z,22.70
2023-02-19T18:13:59.938Z,22.70
2023-02-19T18:16:28.502Z,22.70
2023-02-19T18:18:58.674Z,22.70
2023-02-19T18:21:26.972Z,22.70
2023-02-19T18:23:55.144Z,22.70
2023-02-19T18:26:23.378Z,22.70
2023-02-19T18:28:51.532Z,22.70
2023-02-19T18:31:19.835Z,22.70
2023-02-19T18:33:48.052Z,22.70
2023-02-19T18:36:16.496Z,22.70
2023-02-19T18:38:44.971Z,22.60
2023-02-19T18:41:14.807Z,22.70
2023-02-19T18:43:43.612Z,22.70
2023-02-19T18:46:12.534Z,22.60
2023-02-19T18:48:40.817Z,22.60
2023-02-19T18:51:12.819Z,22.70
2023-02-19T18:53:43.453Z,22.60
2023-02-19T18:56:11.852Z,22.60
2023-02-19T18:58:39.937Z,22.60
2023-02-19T19:01:08.710Z,22.60
2023-02-19T19:03:36.973Z,22.60
2023-02-19T19:06:05.453Z,22.60
2023-02-19T19:08:33.616Z,22.60
2023-02-19T19:11:01.935Z,22.60
2023-02-19T19:13:30.101Z,22.60
2023-02-19T19:15:59.176Z,22.60
2023-02-19T19:18:28.179Z,22.60
2023-02-19T19:21:01.936Z,22.60
2023-02-19T19:23:30.338Z,22.60
2023-02-19T19:25:58.496Z,22.50
2023-02-19T19:28:26.978Z,22.60
2023-02-19T19:30:55.373Z,22.60
2023-02-19T19:33:24.019Z,22.60
2023-02-19T19:35:52.262Z,22.50
2023-02-19T19:38:20.594Z,22.50
2023-02-19T19:40:48.824Z,22.60
2023-02-19T19:43:17.055Z,22.50
2023-02-19T19:45:45.295Z,22.60
2023-02-19T19:48:13.295Z,22.50
2023-02-19T19:50:41.486Z,22.50
2023-02-19T19:53:09.774Z,22.60
2023-02-19T19:55:38.339Z,22.50
2023-02-19T19:58:06.734Z,22.60
2023-02-19T20:00:34.980Z,22.60
2023-02-19T20:03:03.265Z,22.50
2023-02-19T20:10:00.773Z,22.50
2023-02-19T20:12:28.893Z,22.50
2023-02-19T20:14:56.978Z,22.50
2023-02-19T20:17:29.236Z,22.50
2023-02-19T20:19:57.454Z,22.50
2023-02-19T20:22:26.012Z,22.50
2023-02-19T20:24:55.532Z,22.50
2023-02-19T20:27:24.341Z,22.50
2023-02-19T20:29:52.652Z,22.50
2023-02-19T20:32:21.003Z,22.50
2023-02-19T20:34:49.534Z,22.50
2023-02-19T20:37:18.173Z,22.50
2023-02-19T20:39:46.492Z,22.50
2023-02-19T20:42:16.563Z,22.50
2023-02-19T20:44:44.802Z,22.40
2023-02-19T20:47:12.907Z,22.50
2023-02-19T20:49:48.553Z,22.50
2023-02-19T20:52:17.646Z,22.50
2023-02-19T20:54:45.771Z,22.50
2023-02-19T20:57:15.234Z,22.40
2023-02-19T20:59:44.493Z,22.50
2023-02-19T21:02:24.782Z,22.50
2023-02-19T21:04:52.772Z,22.50
2023-02-19T21:07:21.147Z,22.50
2023-02-19T21:09:49.000Z,22.50
2023-02-19T21:12:16.893Z,22.40
2023-02-19T21:14:44.596Z,22.40
2023-02-19T21:17:12.969Z,22.40
2023-02-19T21:19:40.903Z,22.50
2023-02-19T21:22:08.697Z,22.40
2023-02-19T21:24:37.156Z,22.50
2023-02-19T21:27:05.637Z,22.40
2023-02-19T21:29:33.729Z,22.40
2023-02-19T21:32:02.333Z,22.40
2023-02-19T21:34:30.617Z,22.40
2023-02-19T21:36:58.499Z,22.40
2023-02-19T21:39:27.670Z,22.40
2023-02-19T21:41:58.673Z,22.40
2023-02-19T21:44:26.533Z,22.40
2023-02-19T21:46:54.265Z,22.40
2023-02-19T21:49:22.390Z,22.40
2023-02-19T21:51:50.507Z,22.40
2023-02-19T21:54:22.161Z,22.40
2023-02-19T21:56:49.971Z,22.40
2023-02-19T21:59:18.456Z,22.40
2023-02-19T22:01:46.583Z,22.40
2023-02-19T22:04:17.876Z,22.40
2023-02-19T22:06:45.749Z,22.40
2023-02-19T22:09:14.538Z,22.40
2023-02-19T22:11:42.405Z,22.40
2023-02-19T22:14:10.038Z,22.40
2023-02-19T22:16:37.873Z,22.40
2023-02-19T22:19:05.603Z,22.40
2023-02-19T22:21:33.637Z,22.30
2023-02-19T22:24:02.814Z,22.40
2023-02-19T22:26:33.885Z,22.40
2023-02-19T22:29:07.548Z,22.40
2023-02-19T22:31:36.370Z,22.40
2023-02-19T22:34:04.767Z,22.40
2023-02-19T22:36:34.050Z,22.40
2023-02-19T22:39:02.235Z,22.40
2023-02-19T22:41:30.449Z,22.40
2023-02-19T22:43:59.618Z,22.30
2023-02-19T22:46:31.346Z,22.40
2023-02-19T22:49:02.376Z,22.40
2023-02-19T22:51:30.270Z,22.40
2023-02-19T22:53:59.693Z,22.40
2023-02-19T22:56:28.766Z,22.30
2023-02-19T22:58:57.610Z,22.30
2023-02-19T23:01:25.780Z,22.30
2023-02-19T23:03:56.829Z,22.40
2023-02-19T23:06:27.669Z,22.30
2023-02-19T23:08:58.356Z,22.30
2023-02-19T23:11:28.444Z,22.30
2023-02-19T23:13:56.930Z,22.30
2023-02-19T23:16:25.319Z,22.40
2023-02-19T23:18:53.185Z,22.30
2023-02-19T23:21:22.394Z,22.40
2023-02-19T23:23:50.412Z,22.40
2023-02-19T23:26:18.349Z,22.40
2023-02-19T23:28:47.097Z,22.30
2023-02-19T23:31:15.555Z,22.30
2023-02-19T23:33:44.030Z,22.30
2023-02-19T23:36:13.493Z,22.30
2023-02-19T23:38:45.394Z,22.30
2023-02-19T23:41:15.347Z,22.30
2023-02-19T23:43:43.105Z,22.30
2023-02-19T23:46:17.395Z,22.30
2023-02-19T23:48:46.457Z,22.30
2023-02-19T23:51:14.284Z,22.30
2023-02-19T23:53:42.026Z,22.30
2023-02-19T23:56:10.124Z,22.40
2023-02-19T23:58:37.895Z,22.30
